Time;durP1;ratioP1;P1;durP2;ratioP2;P2;SDS_P1;SDS_P2;PMS_P1;PMS_P2;Temp;Humidity;BMP_temperature;BMP_pressure;BME280_temperature;BME280_humidity;BME280_pressure;Samples;Min_cycle;Max_cycle;Signal;HPM_P1;HPM_P2
2024/01/28 00:00:39;;;;;;;21.83;9.75;;;;;;;;;;5029406;28;20092;-58
2024/01/28 00:03:05;;;;;;;22.45;8.30;;;;;;;;;;5030857;28;20416;-57
2024/01/28 00:05:31;;;;;;;22.08;8.25;;;;;;;;;;5029314;28;20036;-56
2024/01/28 00:07:56;;;;;;;19.83;8.27;;;;;;;;;;5031808;28;20161;-57
2024/01/28 00:10:21;;;;;;;20.30;8.10;;;;;;;;;;5034120;28;20113;-56
2024/01/28 00:12:46;;;;;;;23.38;8.30;;;;;;;;;;5032089;28;20026;-56
2024/01/28 00:15:12;;;;;;;23.27;8.03;;;;;;;;;;5052869;28;20442;-56
2024/01/28 00:17:37;;;;;;;21.20;9.20;;;;;;;;;;5050478;28;20152;-57
2024/01/28 00:20:05;;;;;;;19.02;9.10;;;;;;;;;;5037635;28;20738;-56
2024/01/28 00:22:30;;;;;;;18.92;8.25;;;;;;;;;;5031564;28;20528;-56
2024/01/28 00:24:55;;;;;;;23.10;7.43;;;;;;;;;;5024457;28;20065;-57
2024/01/28 00:27:20;;;;;;;18.77;7.70;;;;;;;;;;5027671;28;20031;-57
2024/01/28 00:29:45;;;;;;;20.30;8.10;;;;;;;;;;5026678;28;20080;-57
2024/01/28 00:32:11;;;;;;;23.52;7.50;;;;;;;;;;5030390;28;20401;-56
2024/01/28 00:34:36;;;;;;;17.88;7.22;;;;;;;;;;5026326;28;20045;-56
2024/01/28 00:37:02;;;;;;;19.30;6.75;;;;;;;;;;5024500;28;20796;-57
2024/01/28 00:39:28;;;;;;;20.42;7.32;;;;;;;;;;5032386;28;20037;-56
2024/01/28 00:41:53;;;;;;;21.38;7.65;;;;;;;;;;5025809;28;20053;-57
2024/01/28 00:44:19;;;;;;;18.17;6.88;;;;;;;;;;5028023;28;20065;-57
2024/01/28 00:46:44;;;;;;;18.57;6.37;;;;;;;;;;5024453;28;21724;-56
2024/01/28 00:49:09;;;;;;;17.80;6.63;;;;;;;;;;5018914;28;20025;-55
2024/01/28 00:51:34;;;;;;;16.23;6.68;;;;;;;;;;5028152;28;20101;-56
2024/01/28 00:53:59;;;;;;;16.83;6.60;;;;;;;;;;5030211;28;20041;-57
2024/01/28 00:56:24;;;;;;;13.27;6.50;;;;;;;;;;5029460;28;20060;-56
2024/01/28 00:58:51;;;;;;;16.87;6.67;;;;;;;;;;5027903;28;20021;-56
2024/01/28 01:01:18;;;;;;;17.15;6.25;;;;;;;;;;5018361;28;20030;-56
2024/01/28 01:03:43;;;;;;;21.27;6.97;;;;;;;;;;5028705;28;21038;-57
2024/01/28 01:06:08;;;;;;;20.10;6.60;;;;;;;;;;5028326;28;20021;-56
2024/01/28 01:08:33;;;;;;;19.73;7.63;;;;;;;;;;5032388;28;20175;-56
2024/01/28 01:11:03;;;;;;;18.33;6.90;;;;;;;;;;5028563;28;20036;-57
2024/01/28 01:13:28;;;;;;;19.90;7.20;;;;;;;;;;5021350;28;20116;-56
2024/01/28 01:15:53;;;;;;;16.37;6.57;;;;;;;;;;5029032;28;20456;-57
2024/01/28 01:18:18;;;;;;;19.85;7.07;;;;;;;;;;5030340;28;20486;-55
2024/01/28 01:20:43;;;;;;;18.83;7.07;;;;;;;;;;5028274;28;20089;-56
2024/01/28 01:23:09;;;;;;;16.67;6.30;;;;;;;;;;5026747;28;20451;-56
2024/01/28 01:25:34;;;;;;;18.17;6.75;;;;;;;;;;5023237;28;20029;-57
2024/01/28 01:27:59;;;;;;;16.90;6.13;;;;;;;;;;5032198;28;20036;-57
2024/01/28 01:30:24;;;;;;;17.77;6.07;;;;;;;;;;5026821;28;20492;-57
2024/01/28 01:32:49;;;;;;;17.23;6.03;;;;;;;;;;5029450;28;20044;-58
2024/01/28 01:35:14;;;;;;;16.07;5.43;;;;;;;;;;5029953;28;20103;-56
2024/01/28 01:37:40;;;;;;;19.07;5.57;;;;;;;;;;5029449;28;20036;-55
2024/01/28 01:40:05;;;;;;;15.13;6.20;;;;;;;;;;5025016;28;20101;-57
2024/01/28 01:42:30;;;;;;;14.95;5.57;;;;;;;;;;5029535;28;20075;-56
2024/01/28 01:44:56;;;;;;;15.00;5.00;;;;;;;;;;5028353;28;20113;-56
2024/01/28 01:47:22;;;;;;;14.07;4.88;;;;;;;;;;5017195;28;20041;-56
2024/01/28 01:49:47;;;;;;;13.38;4.43;;;;;;;;;;5021814;28;20057;-57
2024/01/28 01:52:16;;;;;;;15.33;4.83;;;;;;;;;;5028765;28;20072;-56
2024/01/28 01:54:41;;;;;;;11.60;4.57;;;;;;;;;;5029399;28;20452;-57
2024/01/28 01:57:06;;;;;;;17.55;4.57;;;;;;;;;;5027992;28;20023;-56
2024/01/28 01:59:32;;;;;;;13.95;5.18;;;;;;;;;;5025893;28;20147;-56
2024/01/28 02:01:59;;;;;;;17.38;4.63;;;;;;;;;;5029245;28;20033;-56
2024/01/28 02:04:24;;;;;;;13.05;3.85;;;;;;;;;;5026613;28;20030;-56
2024/01/28 02:06:49;;;;;;;13.57;4.50;;;;;;;;;;5028235;28;20018;-55
2024/01/28 02:09:14;;;;;;;15.87;4.80;;;;;;;;;;5024809;28;20118;-56
2024/01/28 02:11:40;;;;;;;14.77;4.07;;;;;;;;;;5032415;28;20467;-55
2024/01/28 02:14:05;;;;;;;15.55;4.28;;;;;;;;;;5032796;28;20355;-56
2024/01/28 02:16:31;;;;;;;19.55;4.53;;;;;;;;;;5025216;28;20022;-57
2024/01/28 02:18:56;;;;;;;15.05;4.38;;;;;;;;;;5020908;28;20077;-55
2024/01/28 02:21:21;;;;;;;12.93;3.88;;;;;;;;;;5029247;28;20064;-57
2024/01/28 02:23:46;;;;;;;10.90;3.97;;;;;;;;;;5029036;28;20371;-55
2024/01/28 02:26:11;;;;;;;11.48;3.42;;;;;;;;;;5025272;28;20029;-56
2024/01/28 02:28:36;;;;;;;16.57;4.53;;;;;;;;;;5020957;28;20057;-57
2024/01/28 02:31:01;;;;;;;13.10;4.13;;;;;;;;;;5021501;28;20109;-57
2024/01/28 02:33:27;;;;;;;13.87;4.17;;;;;;;;;;5027157;28;20060;-56
2024/01/28 02:35:52;;;;;;;15.93;4.13;;;;;;;;;;5027902;28;20041;-56
2024/01/28 02:38:17;;;;;;;13.03;3.90;;;;;;;;;;5029141;28;20040;-57
2024/01/28 02:40:43;;;;;;;11.27;4.10;;;;;;;;;;5026991;28;20018;-56
2024/01/28 02:43:08;;;;;;;14.02;4.40;;;;;;;;;;5028042;28;20085;-56
2024/01/28 02:45:33;;;;;;;13.90;4.40;;;;;;;;;;5028562;28;20028;-56
2024/01/28 02:47:58;;;;;;;13.70;4.13;;;;;;;;;;5020231;28;20108;-57
2024/01/28 02:50:23;;;;;;;13.38;3.80;;;;;;;;;;5030486;28;20024;-57
2024/01/28 02:52:48;;;;;;;13.70;3.77;;;;;;;;;;5028201;28;20026;-56
2024/01/28 02:55:14;;;;;;;16.35;4.45;;;;;;;;;;5025439;28;20493;-56
2024/01/28 02:57:39;;;;;;;14.87;4.17;;;;;;;;;;5026476;28;20026;-57
2024/01/28 03:00:04;;;;;;;12.88;3.63;;;;;;;;;;5024106;28;20496;-56
2024/01/28 03:02:29;;;;;;;12.55;3.75;;;;;;;;;;5024826;28;20025;-56
2024/01/28 03:04:55;;;;;;;11.70;3.70;;;;;;;;;;5027695;28;20052;-57
2024/01/28 03:07:20;;;;;;;16.17;3.80;;;;;;;;;;5023231;28;20057;-57
2024/01/28 03:09:45;;;;;;;14.00;3.78;;;;;;;;;;5026681;28;20010;-57
2024/01/28 03:12:10;;;;;;;14.95;3.90;;;;;;;;;;5023995;28;20033;-57
2024/01/28 03:14:35;;;;;;;14.87;3.70;;;;;;;;;;5029391;28;20056;-57
2024/01/28 03:17:01;;;;;;;11.70;3.83;;;;;;;;;;5020084;28;20017;-56
2024/01/28 03:19:26;;;;;;;9.18;3.35;;;;;;;;;;5028825;28;20041;-57
2024/01/28 03:21:51;;;;;;;11.87;3.77;;;;;;;;;;5027590;28;20024;-57
2024/01/28 03:24:16;;;;;;;12.20;3.87;;;;;;;;;;5023786;28;20452;-55
2024/01/28 03:26:42;;;;;;;10.25;3.78;;;;;;;;;;5025298;28;20082;-56
2024/01/28 03:29:07;;;;;;;11.25;4.00;;;;;;;;;;5026297;28;20053;-57
2024/01/28 03:31:32;;;;;;;11.70;3.72;;;;;;;;;;5028346;28;20037;-57
2024/01/28 03:33:57;;;;;;;15.43;3.80;;;;;;;;;;5022019;28;20025;-56
2024/01/28 03:36:22;;;;;;;11.13;3.33;;;;;;;;;;5025842;28;20026;-56
2024/01/28 03:38:48;;;;;;;11.90;3.37;;;;;;;;;;5028818;28;20021;-56
2024/01/28 03:41:13;;;;;;;11.75;3.60;;;;;;;;;;5024229;28;20173;-57
2024/01/28 03:43:38;;;;;;;14.88;3.90;;;;;;;;;;5024949;28;20025;-57
2024/01/28 03:46:06;;;;;;;14.93;4.32;;;;;;;;;;5026730;28;20044;-55
2024/01/28 03:48:31;;;;;;;12.50;4.07;;;;;;;;;;5027911;28;20025;-56
2024/01/28 03:50:56;;;;;;;15.10;4.05;;;;;;;;;;5027618;28;20022;-56
2024/01/28 03:53:21;;;;;;;15.57;3.55;;;;;;;;;;5026049;28;20041;-56
2024/01/28 03:55:47;;;;;;;11.03;3.60;;;;;;;;;;5028588;28;20025;-56
2024/01/28 03:58:12;;;;;;;10.07;3.47;;;;;;;;;;5022264;28;20091;-56
2024/01/28 04:00:37;;;;;;;13.33;3.50;;;;;;;;;;5023010;28;20112;-55
2024/01/28 04:03:02;;;;;;;12.15;3.25;;;;;;;;;;5028189;28;20813;-56
2024/01/28 04:05:27;;;;;;;9.10;3.17;;;;;;;;;;5028854;28;20030;-56
2024/01/28 04:07:53;;;;;;;10.05;3.13;;;;;;;;;;5029635;28;20463;-56
2024/01/28 04:10:18;;;;;;;12.13;3.57;;;;;;;;;;5039091;28;20060;-56
2024/01/28 04:12:43;;;;;;;14.00;3.13;;;;;;;;;;5045199;28;20045;-57
2024/01/28 04:15:08;;;;;;;10.43;3.77;;;;;;;;;;5043623;28;20037;-56
2024/01/28 04:17:34;;;;;;;14.17;4.03;;;;;;;;;;5050859;28;20032;-56
2024/01/28 04:19:59;;;;;;;11.27;3.40;;;;;;;;;;5032172;28;20024;-56
2024/01/28 04:22:26;;;;;;;13.87;3.90;;;;;;;;;;5029865;28;20030;-56
2024/01/28 04:24:51;;;;;;;9.70;3.03;;;;;;;;;;5030574;28;20056;-56
2024/01/28 04:27:16;;;;;;;11.60;3.20;;;;;;;;;;5032265;28;20056;-57
2024/01/28 04:29:41;;;;;;;10.17;3.40;;;;;;;;;;5032036;28;20025;-57
2024/01/28 04:32:07;;;;;;;13.35;3.47;;;;;;;;;;5028324;28;20029;-55
2024/01/28 04:34:33;;;;;;;12.38;3.67;;;;;;;;;;5029793;28;20026;-57
2024/01/28 04:36:58;;;;;;;12.75;3.70;;;;;;;;;;5031699;28;20040;-57
2024/01/28 04:39:23;;;;;;;11.00;3.55;;;;;;;;;;5027515;28;20057;-56
2024/01/28 04:41:49;;;;;;;12.77;3.75;;;;;;;;;;5019455;28;20107;-55
2024/01/28 04:44:14;;;;;;;9.13;3.42;;;;;;;;;;5029861;28;20037;-56
2024/01/28 04:46:39;;;;;;;12.55;3.63;;;;;;;;;;5028504;28;20021;-57
2024/01/28 04:49:04;;;;;;;12.55;3.40;;;;;;;;;;5026372;28;20027;-56
2024/01/28 04:51:30;;;;;;;10.83;3.13;;;;;;;;;;5028851;28;20105;-56
2024/01/28 04:53:56;;;;;;;10.48;3.47;;;;;;;;;;5030539;28;20558;-58
2024/01/28 04:56:21;;;;;;;11.85;3.25;;;;;;;;;;5026509;28;20048;-57
2024/01/28 04:58:47;;;;;;;16.55;3.65;;;;;;;;;;5035863;28;20034;-55
2024/01/28 05:01:12;;;;;;;15.07;3.33;;;;;;;;;;5031568;28;20029;-57
2024/01/28 05:03:37;;;;;;;9.98;3.28;;;;;;;;;;5039080;28;20090;-56
2024/01/28 05:06:04;;;;;;;13.13;3.60;;;;;;;;;;5040828;28;20021;-57
2024/01/28 05:08:30;;;;;;;11.95;3.60;;;;;;;;;;5023499;28;20108;-56
2024/01/28 05:10:55;;;;;;;11.07;3.58;;;;;;;;;;5030961;28;20024;-56
2024/01/28 05:13:21;;;;;;;10.85;3.90;;;;;;;;;;5030480;28;20034;-55
2024/01/28 05:15:46;;;;;;;13.25;3.55;;;;;;;;;;5022995;28;20049;-57
2024/01/28 05:18:12;;;;;;;10.45;3.45;;;;;;;;;;5024785;28;20057;-57
2024/01/28 05:20:37;;;;;;;11.57;3.87;;;;;;;;;;5023148;28;20036;-56
2024/01/28 05:23:02;;;;;;;10.70;3.35;;;;;;;;;;5030407;28;20022;-58
2024/01/28 05:25:28;;;;;;;13.63;3.50;;;;;;;;;;5029333;28;20030;-57
2024/01/28 05:27:53;;;;;;;11.90;3.30;;;;;;;;;;5019300;28;20456;-55
2024/01/28 05:30:20;;;;;;;12.65;3.00;;;;;;;;;;5023482;28;20041;-57
2024/01/28 05:32:45;;;;;;;12.38;3.22;;;;;;;;;;5027930;28;20124;-57
2024/01/28 05:35:10;;;;;;;13.65;3.75;;;;;;;;;;5031218;28;20101;-56
2024/01/28 05:37:40;;;;;;;9.18;3.10;;;;;;;;;;5029497;28;20021;-58
2024/01/28 05:40:08;;;;;;;10.88;2.90;;;;;;;;;;5027821;28;20101;-55
2024/01/28 05:42:33;;;;;;;9.23;3.10;;;;;;;;;;5026491;28;20044;-56
2024/01/28 05:44:58;;;;;;;10.05;3.08;;;;;;;;;;5030179;28;20021;-56
2024/01/28 05:47:23;;;;;;;10.82;3.38;;;;;;;;;;5023086;28;20040;-56
2024/01/28 05:49:48;;;;;;;14.82;3.13;;;;;;;;;;5030354;28;20455;-56
2024/01/28 05:52:14;;;;;;;10.32;3.10;;;;;;;;;;5025285;28;20493;-57
2024/01/28 05:54:42;;;;;;;10.38;3.00;;;;;;;;;;5029236;28;20036;-58
2024/01/28 05:57:09;;;;;;;12.95;3.40;;;;;;;;;;5027524;28;20021;-57
2024/01/28 05:59:34;;;;;;;12.07;3.42;;;;;;;;;;5019896;28;20034;-56
2024/01/28 06:02:00;;;;;;;11.47;3.03;;;;;;;;;;5026439;28;20017;-55
2024/01/28 06:04:25;;;;;;;13.23;3.35;;;;;;;;;;5030801;28;20035;-55
2024/01/28 06:06:50;;;;;;;13.02;3.17;;;;;;;;;;5030919;28;20038;-57
2024/01/28 06:09:15;;;;;;;13.60;3.40;;;;;;;;;;5033397;28;20021;-58
2024/01/28 06:11:43;;;;;;;14.35;3.20;;;;;;;;;;5031909;28;20033;-55
2024/01/28 06:14:08;;;;;;;12.05;3.58;;;;;;;;;;5039726;28;20154;-56
2024/01/28 06:16:34;;;;;;;13.57;3.47;;;;;;;;;;5042367;28;20116;-57
2024/01/28 06:18:59;;;;;;;12.90;2.80;;;;;;;;;;5029773;28;20028;-56
2024/01/28 06:21:24;;;;;;;12.75;3.35;;;;;;;;;;5030883;28;20033;-56
2024/01/28 06:23:50;;;;;;;10.30;3.08;;;;;;;;;;5028900;28;20013;-56
2024/01/28 06:26:17;;;;;;;10.10;3.03;;;;;;;;;;5030729;28;20354;-57
2024/01/28 06:28:43;;;;;;;15.50;3.08;;;;;;;;;;5024482;28;20017;-57
2024/01/28 06:31:08;;;;;;;10.27;3.40;;;;;;;;;;5029700;28;20029;-56
2024/01/28 06:33:33;;;;;;;10.73;3.20;;;;;;;;;;5029195;28;20155;-56
2024/01/28 06:35:59;;;;;;;12.07;3.03;;;;;;;;;;5030923;28;20017;-57
2024/01/28 06:38:25;;;;;;;13.07;3.17;;;;;;;;;;5029346;28;20113;-57
2024/01/28 06:40:50;;;;;;;11.57;3.53;;;;;;;;;;5018840;28;20231;-56
2024/01/28 06:43:15;;;;;;;10.68;2.92;;;;;;;;;;5027475;28;20028;-57
2024/01/28 06:45:41;;;;;;;9.25;3.45;;;;;;;;;;5015701;28;20504;-55
2024/01/28 06:48:06;;;;;;;10.70;3.15;;;;;;;;;;5029494;28;20017;-56
2024/01/28 06:50:31;;;;;;;11.32;3.40;;;;;;;;;;5030787;28;20021;-56
2024/01/28 06:53:01;;;;;;;10.13;3.40;;;;;;;;;;5026639;28;20160;-56
2024/01/28 06:55:26;;;;;;;10.52;2.97;;;;;;;;;;5030992;28;20025;-57
2024/01/28 06:57:51;;;;;;;12.20;3.45;;;;;;;;;;5030773;28;20019;-57
2024/01/28 07:00:16;;;;;;;11.05;3.33;;;;;;;;;;5028752;28;20036;-56
2024/01/28 07:02:41;;;;;;;14.50;4.20;;;;;;;;;;5027092;28;20026;-57
2024/01/28 07:05:09;;;;;;;9.20;3.42;;;;;;;;;;5030802;28;20438;-56
2024/01/28 07:07:34;;;;;;;11.25;3.70;;;;;;;;;;5024367;28;20021;-57
2024/01/28 07:09:59;;;;;;;14.30;4.20;;;;;;;;;;5029871;28;20062;-56
2024/01/28 07:12:25;;;;;;;11.43;3.40;;;;;;;;;;5030534;28;20057;-57
2024/01/28 07:14:50;;;;;;;13.60;3.60;;;;;;;;;;5028339;28;20021;-56
2024/01/28 07:17:15;;;;;;;14.45;4.10;;;;;;;;;;5027936;28;20103;-57
2024/01/28 07:19:41;;;;;;;13.80;3.77;;;;;;;;;;5027642;28;20076;-56
2024/01/28 07:22:06;;;;;;;14.45;4.10;;;;;;;;;;5026374;28;20017;-56
2024/01/28 07:24:32;;;;;;;12.23;3.65;;;;;;;;;;5029473;28;20366;-56
2024/01/28 07:26:57;;;;;;;11.98;3.83;;;;;;;;;;5023346;28;20017;-56
2024/01/28 07:29:22;;;;;;;11.93;3.53;;;;;;;;;;5017644;28;20032;-56
2024/01/28 07:31:47;;;;;;;13.25;4.00;;;;;;;;;;5023989;28;20520;-56
2024/01/28 07:34:13;;;;;;;11.93;3.95;;;;;;;;;;5026868;28;20085;-56
2024/01/28 07:36:38;;;;;;;12.18;4.05;;;;;;;;;;5011918;28;20030;-56
2024/01/28 07:39:06;;;;;;;10.50;4.43;;;;;;;;;;5026497;28;20045;-55
2024/01/28 07:41:34;;;;;;;12.80;4.03;;;;;;;;;;5031654;28;20409;-56
2024/01/28 07:43:59;;;;;;;11.30;3.80;;;;;;;;;;5029733;28;20026;-56
2024/01/28 07:46:24;;;;;;;10.53;3.83;;;;;;;;;;5029466;28;20122;-56
2024/01/28 07:48:49;;;;;;;13.55;4.03;;;;;;;;;;5032333;28;20528;-56
2024/01/28 07:51:15;;;;;;;12.00;4.43;;;;;;;;;;5023929;28;20052;-55
2024/01/28 07:53:40;;;;;;;12.65;3.95;;;;;;;;;;5029177;28;20030;-57
2024/01/28 07:56:05;;;;;;;12.40;3.97;;;;;;;;;;5027802;28;20091;-56
2024/01/28 07:58:30;;;;;;;14.02;3.97;;;;;;;;;;5032672;28;20028;-55
2024/01/28 08:00:55;;;;;;;13.17;4.53;;;;;;;;;;5027673;28;20024;-56
2024/01/28 08:03:21;;;;;;;17.07;4.40;;;;;;;;;;5030487;28;20026;-56
2024/01/28 08:05:46;;;;;;;14.20;4.57;;;;;;;;;;5027822;28;20091;-57
2024/01/28 08:08:11;;;;;;;11.93;3.90;;;;;;;;;;5028273;28;20048;-57
2024/01/28 08:10:36;;;;;;;15.18;4.53;;;;;;;;;;5032703;28;20021;-58
2024/01/28 08:13:02;;;;;;;12.77;3.85;;;;;;;;;;5037548;28;20113;-59
2024/01/28 08:15:28;;;;;;;15.63;4.18;;;;;;;;;;5037710;28;20041;-58
2024/01/28 08:17:53;;;;;;;14.30;4.80;;;;;;;;;;5040385;28;20044;-56
2024/01/28 08:20:18;;;;;;;13.13;3.90;;;;;;;;;;5036383;28;20060;-56
2024/01/28 08:22:43;;;;;;;13.38;4.00;;;;;;;;;;5028945;28;20028;-57
2024/01/28 08:25:08;;;;;;;13.47;4.13;;;;;;;;;;5034828;28;20112;-56
2024/01/28 08:27:33;;;;;;;15.10;5.05;;;;;;;;;;5032631;28;20408;-57
2024/01/28 08:29:59;;;;;;;13.13;4.78;;;;;;;;;;5027570;28;20044;-58
2024/01/28 08:32:24;;;;;;;12.23;4.10;;;;;;;;;;5032703;28;20122;-57
2024/01/28 08:34:51;;;;;;;17.25;4.82;;;;;;;;;;5033489;28;20013;-57
2024/01/28 08:37:16;;;;;;;12.23;4.20;;;;;;;;;;5033721;28;20014;-57
2024/01/28 08:39:42;;;;;;;12.90;4.43;;;;;;;;;;5030778;28;20014;-57
2024/01/28 08:42:07;;;;;;;12.60;3.95;;;;;;;;;;5032209;28;20559;-57
2024/01/28 08:44:32;;;;;;;12.52;4.30;;;;;;;;;;5032561;28;20017;-58
2024/01/28 08:46:57;;;;;;;14.87;4.40;;;;;;;;;;5029315;28;20030;-56
2024/01/28 08:49:22;;;;;;;11.40;3.80;;;;;;;;;;5015632;28;20390;-57
2024/01/28 08:51:47;;;;;;;16.50;5.15;;;;;;;;;;5030070;28;20046;-58
2024/01/28 08:54:12;;;;;;;13.30;4.73;;;;;;;;;;5027651;28;20037;-57
2024/01/28 08:56:38;;;;;;;16.67;4.67;;;;;;;;;;5030401;28;20017;-57
2024/01/28 08:59:03;;;;;;;12.68;4.15;;;;;;;;;;5027800;28;20049;-57
2024/01/28 09:01:28;;;;;;;13.33;4.80;;;;;;;;;;5028460;28;20064;-56
2024/01/28 09:03:53;;;;;;;14.82;5.03;;;;;;;;;;5028923;28;20017;-57
2024/01/28 09:06:19;;;;;;;14.57;4.85;;;;;;;;;;5032979;28;20048;-57
2024/01/28 09:08:44;;;;;;;13.75;4.70;;;;;;;;;;5032206;28;20029;-56
2024/01/28 09:11:09;;;;;;;14.50;4.70;;;;;;;;;;5031725;28;20024;-56
2024/01/28 09:13:34;;;;;;;13.43;4.43;;;;;;;;;;5032601;28;20033;-57
2024/01/28 09:15:59;;;;;;;14.25;4.93;;;;;;;;;;5031600;28;20029;-58
2024/01/28 09:18:24;;;;;;;17.42;5.05;;;;;;;;;;5032557;28;20056;-58
2024/01/28 09:20:51;;;;;;;13.70;4.80;;;;;;;;;;5032563;28;20474;-56
2024/01/28 09:23:16;;;;;;;17.27;5.25;;;;;;;;;;5030495;28;20033;-57
2024/01/28 09:25:41;;;;;;;15.17;5.30;;;;;;;;;;5030955;28;20028;-57
2024/01/28 09:28:07;;;;;;;14.57;4.47;;;;;;;;;;5029265;28;20498;-57
2024/01/28 09:30:32;;;;;;;12.50;4.47;;;;;;;;;;5025238;28;20028;-57
2024/01/28 09:32:57;;;;;;;16.60;4.60;;;;;;;;;;5031608;28;20030;-56
2024/01/28 09:35:22;;;;;;;12.40;3.85;;;;;;;;;;5032223;28;20113;-56
2024/01/28 09:37:48;;;;;;;13.00;4.77;;;;;;;;;;5031458;28;20038;-57
2024/01/28 09:40:13;;;;;;;12.90;3.90;;;;;;;;;;5030067;28;20040;-56
2024/01/28 09:42:43;;;;;;;13.63;3.97;;;;;;;;;;5031660;28;20533;-57
2024/01/28 09:45:08;;;;;;;15.05;4.88;;;;;;;;;;5032034;28;20444;-57
2024/01/28 09:47:35;;;;;;;14.40;3.97;;;;;;;;;;5032000;28;20056;-55
2024/01/28 09:50:03;;;;;;;10.52;3.35;;;;;;;;;;5030519;28;20041;-57
2024/01/28 09:52:29;;;;;;;9.93;3.60;;;;;;;;;;5031387;28;20057;-56
2024/01/28 09:54:54;;;;;;;16.45;3.58;;;;;;;;;;5031812;28;20493;-57
2024/01/28 09:57:19;;;;;;;15.43;3.40;;;;;;;;;;5032116;28;20037;-58
2024/01/28 09:59:46;;;;;;;11.43;3.50;;;;;;;;;;5028164;28;20393;-56
2024/01/28 10:02:11;;;;;;;10.60;2.90;;;;;;;;;;5031057;28;20460;-57
2024/01/28 10:04:37;;;;;;;15.07;3.65;;;;;;;;;;5031026;28;20025;-56
2024/01/28 10:07:02;;;;;;;13.00;3.13;;;;;;;;;;5032001;28;20108;-57
2024/01/28 10:09:28;;;;;;;13.07;3.33;;;;;;;;;;5048647;28;20035;-57
2024/01/28 10:11:55;;;;;;;11.30;2.90;;;;;;;;;;5049046;28;20032;-57
2024/01/28 10:14:20;;;;;;;10.80;2.80;;;;;;;;;;5050332;28;20104;-56
2024/01/28 10:16:47;;;;;;;11.90;2.90;;;;;;;;;;5045379;28;20018;-55
2024/01/28 10:19:12;;;;;;;11.75;2.75;;;;;;;;;;5033836;28;20401;-56
2024/01/28 10:21:38;;;;;;;11.23;3.70;;;;;;;;;;5032004;28;20029;-56
2024/01/28 10:24:03;;;;;;;13.87;2.90;;;;;;;;;;5028788;28;20107;-56
2024/01/28 10:26:28;;;;;;;10.60;3.03;;;;;;;;;;5032316;28;20029;-57
2024/01/28 10:28:53;;;;;;;14.53;3.10;;;;;;;;;;5030024;28;20081;-56
2024/01/28 10:31:22;;;;;;;11.45;2.83;;;;;;;;;;5022600;28;20147;-57
2024/01/28 10:33:48;;;;;;;14.80;3.53;;;;;;;;;;5032188;28;20528;-56
2024/01/28 10:36:13;;;;;;;13.02;3.25;;;;;;;;;;5033011;28;20029;-57
2024/01/28 10:38:41;;;;;;;13.15;3.35;;;;;;;;;;5027999;28;20496;-57
2024/01/28 10:41:07;;;;;;;12.88;3.28;;;;;;;;;;5029055;28;20021;-57
2024/01/28 10:43:35;;;;;;;11.13;3.10;;;;;;;;;;5032158;28;20030;-57
2024/01/28 10:46:01;;;;;;;11.23;3.00;;;;;;;;;;5031707;28;20041;-57
2024/01/28 10:48:27;;;;;;;8.80;2.83;;;;;;;;;;5031418;28;20103;-57
2024/01/28 10:50:53;;;;;;;9.82;2.75;;;;;;;;;;5029197;28;20014;-56
2024/01/28 10:53:21;;;;;;;9.82;2.55;;;;;;;;;;5029052;28;20432;-57
2024/01/28 10:55:46;;;;;;;9.02;2.60;;;;;;;;;;5031100;28;20013;-57
2024/01/28 10:58:11;;;;;;;7.88;2.50;;;;;;;;;;5030807;28;20603;-57
2024/01/28 11:00:37;;;;;;;15.30;3.57;;;;;;;;;;5026144;28;20028;-56
2024/01/28 11:03:06;;;;;;;10.18;2.92;;;;;;;;;;5028951;28;20448;-58
2024/01/28 11:05:31;;;;;;;9.02;2.40;;;;;;;;;;5024146;28;20009;-56
2024/01/28 11:07:59;;;;;;;8.50;2.43;;;;;;;;;;5030315;28;20020;-56
2024/01/28 11:10:28;;;;;;;10.18;2.63;;;;;;;;;;5029789;28;20061;-57
2024/01/28 11:12:53;;;;;;;15.00;2.60;;;;;;;;;;5015088;28;20033;-55
2024/01/28 11:15:19;;;;;;;9.02;2.10;;;;;;;;;;5033537;28;20048;-57
2024/01/28 11:17:44;;;;;;;12.07;2.72;;;;;;;;;;5033180;28;20021;-57
2024/01/28 11:20:11;;;;;;;10.02;2.42;;;;;;;;;;5034641;28;20036;-58
2024/01/28 11:22:47;;;;;;;11.15;2.30;;;;;;;;;;5033887;28;20018;-57
2024/01/28 11:25:15;;;;;;;8.20;2.22;;;;;;;;;;5030564;28;20033;-58
2024/01/28 11:27:40;;;;;;;10.35;2.70;;;;;;;;;;5034282;28;20045;-56
2024/01/28 11:30:09;;;;;;;7.85;2.33;;;;;;;;;;5030873;28;20071;-57
2024/01/28 11:32:34;;;;;;;13.23;2.72;;;;;;;;;;5033445;28;20095;-57
2024/01/28 11:34:59;;;;;;;10.23;2.40;;;;;;;;;;5034168;28;20022;-55
2024/01/28 11:37:27;;;;;;;9.70;2.20;;;;;;;;;;5034062;28;20026;-59
2024/01/28 11:39:55;;;;;;;9.52;2.10;;;;;;;;;;5025967;28;20492;-57
2024/01/28 11:42:20;;;;;;;9.50;2.35;;;;;;;;;;5034168;28;20549;-57
2024/01/28 11:44:45;;;;;;;10.10;2.08;;;;;;;;;;5033062;28;20116;-58
2024/01/28 11:47:13;;;;;;;9.77;2.10;;;;;;;;;;5034036;28;20040;-57
2024/01/28 11:49:39;;;;;;;8.80;1.95;;;;;;;;;;5032277;28;21180;-56
2024/01/28 11:52:06;;;;;;;9.95;2.10;;;;;;;;;;5030109;28;20108;-58
2024/01/28 11:54:31;;;;;;;8.75;2.53;;;;;;;;;;5029355;28;20013;-57
2024/01/28 11:56:56;;;;;;;8.32;2.30;;;;;;;;;;5033749;28;20492;-56
2024/01/28 11:59:22;;;;;;;9.40;2.40;;;;;;;;;;5028988;28;20028;-56
2024/01/28 12:01:47;;;;;;;9.00;1.95;;;;;;;;;;5033160;28;20461;-58
2024/01/28 12:04:13;;;;;;;7.82;1.90;;;;;;;;;;5032996;28;20925;-57
2024/01/28 12:06:38;;;;;;;8.27;2.00;;;;;;;;;;5031767;28;20026;-56
2024/01/28 12:09:03;;;;;;;6.77;2.00;;;;;;;;;;5034261;28;20524;-57
2024/01/28 12:11:29;;;;;;;9.25;1.88;;;;;;;;;;5032717;28;20025;-56
2024/01/28 12:13:54;;;;;;;7.15;2.00;;;;;;;;;;5032865;28;20057;-58
2024/01/28 12:16:21;;;;;;;7.80;1.80;;;;;;;;;;5041304;28;20018;-57
2024/01/28 12:18:46;;;;;;;7.03;1.75;;;;;;;;;;5034387;28;20017;-57
2024/01/28 12:21:16;;;;;;;6.57;1.30;;;;;;;;;;5032698;28;20101;-56
2024/01/28 12:23:41;;;;;;;5.88;1.35;;;;;;;;;;5032492;28;20022;-57
2024/01/28 12:26:06;;;;;;;7.97;1.45;;;;;;;;;;5033998;28;20029;-57
2024/01/28 12:28:32;;;;;;;5.00;1.37;;;;;;;;;;5035342;28;20033;-57
2024/01/28 12:30:59;;;;;;;6.47;1.60;;;;;;;;;;5031684;28;20014;-57
2024/01/28 12:33:24;;;;;;;5.88;1.60;;;;;;;;;;5035462;28;20040;-57
2024/01/28 12:35:49;;;;;;;6.73;1.50;;;;;;;;;;5045766;28;20018;-57
2024/01/28 12:38:14;;;;;;;9.32;1.73;;;;;;;;;;5036166;28;20139;-59
2024/01/28 12:40:39;;;;;;;7.87;1.93;;;;;;;;;;5037428;28;20037;-57
2024/01/28 12:43:05;;;;;;;7.93;1.70;;;;;;;;;;5046029;28;20090;-57
2024/01/28 12:45:30;;;;;;;7.20;1.73;;;;;;;;;;5045168;28;20056;-57
2024/01/28 12:47:55;;;;;;;7.97;1.75;;;;;;;;;;5043757;28;20018;-58
2024/01/28 12:50:21;;;;;;;6.40;1.73;;;;;;;;;;5033397;28;20044;-57
2024/01/28 12:52:46;;;;;;;5.10;1.40;;;;;;;;;;5030248;28;20064;-56
2024/01/28 12:55:11;;;;;;;8.73;1.60;;;;;;;;;;5031640;28;20551;-56
2024/01/28 12:57:38;;;;;;;8.37;1.87;;;;;;;;;;5034024;28;20033;-58
2024/01/28 13:00:06;;;;;;;6.35;1.58;;;;;;;;;;5031084;28;20452;-57
2024/01/28 13:02:31;;;;;;;9.00;1.77;;;;;;;;;;5032269;28;20089;-57
2024/01/28 13:04:57;;;;;;;7.37;1.50;;;;;;;;;;5033590;28;20060;-59
2024/01/28 13:07:23;;;;;;;6.03;1.60;;;;;;;;;;5024034;28;20105;-56
2024/01/28 13:09:48;;;;;;;8.73;1.60;;;;;;;;;;5025993;28;20457;-58
2024/01/28 13:12:13;;;;;;;7.87;1.60;;;;;;;;;;5032277;28;20101;-56
2024/01/28 13:14:38;;;;;;;7.17;1.63;;;;;;;;;;5032549;28;20041;-57
2024/01/28 13:17:04;;;;;;;6.53;1.73;;;;;;;;;;5030256;28;20109;-57
2024/01/28 13:19:29;;;;;;;5.47;1.60;;;;;;;;;;5041887;28;20117;-58
2024/01/28 13:21:54;;;;;;;9.52;2.10;;;;;;;;;;5040418;28;20113;-58
2024/01/28 13:24:19;;;;;;;7.90;2.00;;;;;;;;;;5027008;28;20034;-56
2024/01/28 13:26:44;;;;;;;8.10;1.80;;;;;;;;;;5026396;28;20057;-57
2024/01/28 13:29:10;;;;;;;9.52;1.80;;;;;;;;;;5028936;28;20029;-57
2024/01/28 13:31:35;;;;;;;7.10;1.77;;;;;;;;;;5021951;28;20017;-56
2024/01/28 13:34:01;;;;;;;7.03;2.22;;;;;;;;;;5026948;28;20030;-56
2024/01/28 13:36:26;;;;;;;6.97;1.80;;;;;;;;;;5028887;28;20037;-57
2024/01/28 13:38:51;;;;;;;8.75;1.80;;;;;;;;;;5028223;28;20440;-56
2024/01/28 13:41:16;;;;;;;8.77;2.00;;;;;;;;;;5026895;28;20018;-57
2024/01/28 13:43:41;;;;;;;5.22;1.52;;;;;;;;;;5027910;28;20040;-56
2024/01/28 13:46:06;;;;;;;8.53;2.00;;;;;;;;;;5025623;28;20025;-60
2024/01/28 13:48:31;;;;;;;7.73;2.10;;;;;;;;;;5027004;28;20490;-57
2024/01/28 13:50:57;;;;;;;7.60;2.22;;;;;;;;;;5029665;28;20033;-57
2024/01/28 13:53:22;;;;;;;9.97;2.33;;;;;;;;;;5028024;28;20061;-57
2024/01/28 13:55:48;;;;;;;9.27;2.50;;;;;;;;;;5028395;28;20025;-56
2024/01/28 13:58:13;;;;;;;8.45;2.03;;;;;;;;;;5015479;28;20049;-56
2024/01/28 14:00:40;;;;;;;9.53;2.27;;;;;;;;;;5025272;28;20199;-56
2024/01/28 14:03:05;;;;;;;8.55;2.13;;;;;;;;;;5018506;28;20022;-57
2024/01/28 14:05:30;;;;;;;7.63;2.13;;;;;;;;;;5031820;28;20033;-57
2024/01/28 14:07:55;;;;;;;9.85;2.47;;;;;;;;;;5037784;28;20456;-57
2024/01/28 14:10:21;;;;;;;7.83;2.37;;;;;;;;;;5030971;28;20108;-57
2024/01/28 14:12:46;;;;;;;8.47;2.27;;;;;;;;;;5037164;28;20029;-57
2024/01/28 14:15:11;;;;;;;6.32;1.77;;;;;;;;;;5038344;28;20022;-57
2024/01/28 14:17:36;;;;;;;8.53;2.23;;;;;;;;;;5027253;28;20564;-56
2024/01/28 14:20:02;;;;;;;9.43;3.15;;;;;;;;;;5029192;28;20024;-56
2024/01/28 14:22:28;;;;;;;11.30;2.20;;;;;;;;;;5027665;28;20468;-56